createdAt,value
2023-04-29T00:00:03.000Z,9.6
2023-04-29T00:01:20.000Z,9.4
2023-04-29T00:03:53.000Z,8.9
2023-04-29T00:05:09.000Z,9.5
2023-04-29T00:06:26.000Z,10
2023-04-29T00:07:42.000Z,10
2023-04-29T00:08:59.000Z,9.6
2023-04-29T00:10:15.000Z,9.2
2023-04-29T00:11:31.000Z,9.4
2023-04-29T00:12:48.000Z,9.3
2023-04-29T00:14:04.000Z,9.1
2023-04-29T00:15:21.000Z,9.4
2023-04-29T00:16:38.000Z,9.4
2023-04-29T00:17:53.000Z,9.5
2023-04-29T00:19:10.000Z,9.6
2023-04-29T00:20:26.000Z,9.5
2023-04-29T00:21:43.000Z,9.9
2023-04-29T00:23:00.000Z,9.6
2023-04-29T00:24:16.000Z,9.5
2023-04-29T00:25:33.000Z,9.4
2023-04-29T00:26:49.000Z,9.7
2023-04-29T00:28:06.000Z,9.2
2023-04-29T00:29:22.000Z,8.9
2023-04-29T00:30:39.000Z,9.1
2023-04-29T00:31:55.000Z,9.1
2023-04-29T00:33:12.000Z,8.9
2023-04-29T00:34:28.000Z,9
2023-04-29T00:35:44.000Z,9.2
2023-04-29T00:37:01.000Z,9.1
2023-04-29T00:38:17.000Z,9.3
2023-04-29T00:39:34.000Z,9.3
2023-04-29T00:40:50.000Z,8.7
2023-04-29T00:42:07.000Z,8.9
2023-04-29T00:43:23.000Z,10.5
2023-04-29T00:44:40.000Z,9.4
2023-04-29T00:45:56.000Z,10
2023-04-29T00:47:13.000Z,10.8
2023-04-29T00:48:30.000Z,10.3
2023-04-29T00:49:46.000Z,11.5
2023-04-29T00:51:02.000Z,14.5
2023-04-29T00:52:18.000Z,15.4
2023-04-29T00:53:35.000Z,15.4
2023-04-29T00:54:51.000Z,15.1
2023-04-29T00:56:08.000Z,16.1
2023-04-29T00:57:25.000Z,16.5
2023-04-29T00:58:41.000Z,17
2023-04-29T00:59:58.000Z,16.8
2023-04-29T01:01:14.000Z,16.8
2023-04-29T01:02:31.000Z,16.5
2023-04-29T01:03:47.000Z,17.2
2023-04-29T01:05:04.000Z,17.2
2023-04-29T01:06:20.000Z,17.5
2023-04-29T01:07:36.000Z,18
2023-04-29T01:08:53.000Z,17.7
2023-04-29T01:10:09.000Z,17.8
2023-04-29T01:11:26.000Z,17.9
2023-04-29T01:12:42.000Z,17.7
2023-04-29T01:13:59.000Z,17.9
2023-04-29T01:15:15.000Z,18.4
2023-04-29T01:16:32.000Z,17.7
2023-04-29T01:17:48.000Z,17.7
2023-04-29T01:19:05.000Z,19
2023-04-29T01:20:22.000Z,19.1
2023-04-29T01:21:38.000Z,18.9
2023-04-29T01:22:55.000Z,18.8
2023-04-29T01:24:11.000Z,18.4
2023-04-29T01:25:27.000Z,19.6
2023-04-29T01:26:43.000Z,20.6
2023-04-29T01:28:00.000Z,20.9
2023-04-29T01:29:17.000Z,20.2
2023-04-29T01:30:33.000Z,19.5
2023-04-29T01:31:50.000Z,19.4
2023-04-29T01:33:06.000Z,20.3
2023-04-29T01:34:23.000Z,20.5
2023-04-29T01:35:39.000Z,20.3
2023-04-29T01:36:56.000Z,20.7
2023-04-29T01:38:12.000Z,20.9
2023-04-29T01:39:29.000Z,20.6
2023-04-29T01:40:45.000Z,21.3
2023-04-29T01:42:01.000Z,20.8
2023-04-29T01:43:18.000Z,20.2
2023-04-29T01:44:34.000Z,20.6
2023-04-29T01:45:51.000Z,21.3
2023-04-29T01:47:07.000Z,21.8
2023-04-29T01:48:24.000Z,21.7
2023-04-29T01:49:40.000Z,21.4
2023-04-29T01:50:57.000Z,21.5
2023-04-29T01:52:14.000Z,22.2
2023-04-29T01:53:30.000Z,22.5
2023-04-29T01:54:47.000Z,22.4
2023-04-29T01:56:03.000Z,22.8
2023-04-29T01:57:20.000Z,23.5
2023-04-29T01:58:35.000Z,24.7
2023-04-29T01:59:52.000Z,24.8
2023-04-29T02:01:09.000Z,24.9
2023-04-29T02:02:25.000Z,24.3
2023-04-29T02:03:42.000Z,24.6
2023-04-29T02:04:58.000Z,25.4
2023-04-29T02:06:15.000Z,24.4
2023-04-29T02:07:31.000Z,24.3
2023-04-29T02:08:48.000Z,25.6
2023-04-29T02:10:04.000Z,25
2023-04-29T02:11:21.000Z,26
2023-04-29T02:12:37.000Z,26
2023-04-29T02:13:54.000Z,25.2
2023-04-29T02:15:10.000Z,25.7
2023-04-29T02:16:26.000Z,25.8
2023-04-29T02:17:43.000Z,25.6
2023-04-29T02:18:59.000Z,24.8
2023-04-29T02:20:16.000Z,24.4
2023-04-29T02:21:32.000Z,25.4
2023-04-29T02:22:49.000Z,23.8
2023-04-29T02:24:05.000Z,23.4
2023-04-29T02:25:22.000Z,22.4
2023-04-29T02:26:39.000Z,21.1
2023-04-29T02:27:55.000Z,22.1
2023-04-29T02:29:12.000Z,21
2023-04-29T02:30:28.000Z,21.1
2023-04-29T02:31:44.000Z,20.5
2023-04-29T02:33:00.000Z,21.2
2023-04-29T02:34:17.000Z,20.1
2023-04-29T02:35:34.000Z,19.4
2023-04-29T02:36:50.000Z,19.7
2023-04-29T02:38:07.000Z,19.5
2023-04-29T02:39:23.000Z,19.3
2023-04-29T02:40:40.000Z,18.7
2023-04-29T02:41:56.000Z,18.8
2023-04-29T02:43:13.000Z,19.4
2023-04-29T02:44:29.000Z,19.1
2023-04-29T02:45:46.000Z,18.7
2023-04-29T02:47:02.000Z,18.3
2023-04-29T02:48:19.000Z,19
2023-04-29T02:49:35.000Z,18.6
2023-04-29T02:50:51.000Z,17.8
2023-04-29T02:52:08.000Z,18.9
2023-04-29T02:53:24.000Z,18.2
2023-04-29T02:54:41.000Z,18.6
2023-04-29T02:55:57.000Z,18.7
2023-04-29T02:57:14.000Z,19.4
2023-04-29T02:58:31.000Z,19
2023-04-29T03:01:04.000Z,19.7
2023-04-29T03:03:37.000Z,19.7
2023-04-29T03:04:53.000Z,20.4
2023-04-29T03:06:09.000Z,19.9
2023-04-29T03:07:26.000Z,19.9
2023-04-29T03:08:42.000Z,20
2023-04-29T03:09:59.000Z,20.1
2023-04-29T03:11:15.000Z,19.9
2023-04-29T03:12:32.000Z,20.2
2023-04-29T03:13:48.000Z,20
2023-04-29T03:15:05.000Z,20.2
2023-04-29T03:16:21.000Z,20.3
2023-04-29T03:17:38.000Z,20
2023-04-29T03:18:54.000Z,20.4
2023-04-29T03:20:11.000Z,20.2
2023-04-29T03:21:27.000Z,20.2
2023-04-29T03:22:43.000Z,20.7
2023-04-29T03:24:00.000Z,20.9
2023-04-29T03:25:16.000Z,20.9
2023-04-29T03:26:33.000Z,21.4
2023-04-29T03:27:49.000Z,21.3
2023-04-29T03:30:22.000Z,21
2023-04-29T03:31:39.000Z,21.5
2023-04-29T03:32:56.000Z,21.6
2023-04-29T03:35:29.000Z,21.4
2023-04-29T03:36:45.000Z,21.4
2023-04-29T03:38:02.000Z,21.1
2023-04-29T03:39:17.000Z,21.4
2023-04-29T03:40:34.000Z,21.7
2023-04-29T03:41:51.000Z,21.2
2023-04-29T03:43:07.000Z,21.3
2023-04-29T03:44:24.000Z,21.3
2023-04-29T03:45:40.000Z,21.7
2023-04-29T03:46:57.000Z,21.5
2023-04-29T03:48:13.000Z,21
2023-04-29T03:49:30.000Z,22.1
2023-04-29T03:50:46.000Z,21.1
2023-04-29T03:52:03.000Z,21.3
2023-04-29T03:53:19.000Z,20.4
2023-04-29T03:54:36.000Z,20.9
2023-04-29T03:55:52.000Z,21.3
2023-04-29T03:57:08.000Z,21.3
2023-04-29T03:58:25.000Z,21.3
2023-04-29T03:59:41.000Z,21.3
2023-04-29T04:00:58.000Z,20.9
2023-04-29T04:02:14.000Z,21.5
2023-04-29T04:03:31.000Z,21.5
2023-04-29T04:04:48.000Z,21.5
2023-04-29T04:06:04.000Z,21.4
2023-04-29T04:07:21.000Z,20.9
2023-04-29T04:08:37.000Z,21.4
2023-04-29T04:09:54.000Z,20.2
2023-04-29T04:11:10.000Z,20.5
2023-04-29T04:12:26.000Z,20.7
2023-04-29T04:13:43.000Z,20.9
2023-04-29T04:14:59.000Z,22
2023-04-29T04:16:16.000Z,21.6
2023-04-29T04:17:32.000Z,21.2
2023-04-29T04:18:49.000Z,22.3
2023-04-29T04:21:22.000Z,21.4
2023-04-29T04:22:38.000Z,22.3
2023-04-29T04:23:55.000Z,22.3
2023-04-29T04:25:11.000Z,21.7
2023-04-29T04:26:28.000Z,21.3
2023-04-29T04:27:44.000Z,20.9
2023-04-29T04:29:00.000Z,21.6
2023-04-29T04:30:17.000Z,21.5
2023-04-29T04:31:33.000Z,21.8
2023-04-29T04:32:50.000Z,20.7
2023-04-29T04:34:06.000Z,21.1
2023-04-29T04:35:22.000Z,20.5
2023-04-29T04:36:39.000Z,21.3
2023-04-29T04:37:55.000Z,20
2023-04-29T04:39:12.000Z,20.2
2023-04-29T04:40:28.000Z,20
2023-04-29T04:41:45.000Z,19.8
2023-04-29T04:43:01.000Z,19.3
2023-04-29T04:44:18.000Z,19.3
2023-04-29T04:45:35.000Z,19.3
2023-04-29T04:48:08.000Z,19.7
2023-04-29T04:50:41.000Z,19.1
2023-04-29T04:51:56.000Z,19.3
2023-04-29T04:53:13.000Z,19.5
2023-04-29T04:54:30.000Z,20.3
2023-04-29T04:55:46.000Z,20.6
2023-04-29T04:57:03.000Z,21.5
2023-04-29T04:58:19.000Z,22.2
2023-04-29T04:59:36.000Z,24.9
2023-04-29T05:00:52.000Z,24.7
2023-04-29T05:03:25.000Z,25.9
2023-04-29T05:04:41.000Z,26.1
2023-04-29T05:07:14.000Z,27.4
2023-04-29T05:08:30.000Z,27.8
2023-04-29T05:09:47.000Z,28.2
2023-04-29T05:11:03.000Z,28.5
2023-04-29T05:12:20.000Z,27.9
2023-04-29T05:13:36.000Z,29.1
2023-04-29T05:14:53.000Z,28.7
2023-04-29T05:16:09.000Z,29
2023-04-29T05:17:26.000Z,29.5
2023-04-29T05:18:42.000Z,30.6
2023-04-29T05:19:58.000Z,31.3
2023-04-29T05:21:14.000Z,30.3
2023-04-29T05:22:31.000Z,31.3
2023-04-29T05:23:47.000Z,31.2
2023-04-29T05:25:04.000Z,33.2
2023-04-29T05:26:20.000Z,32.1
2023-04-29T05:27:37.000Z,33.4
2023-04-29T05:28:53.000Z,33.6
2023-04-29T05:30:10.000Z,35.9
2023-04-29T05:31:26.000Z,38.6
2023-04-29T05:32:43.000Z,39.1
2023-04-29T05:33:59.000Z,36.6
2023-04-29T05:35:16.000Z,39.5
2023-04-29T05:36:32.000Z,41.4
2023-04-29T05:39:05.000Z,43.6
2023-04-29T05:40:21.000Z,47.3
2023-04-29T05:41:38.000Z,46.6
2023-04-29T05:42:54.000Z,47.7
2023-04-29T05:44:11.000Z,48.7
2023-04-29T05:45:28.000Z,50.7
2023-04-29T05:46:44.000Z,54.3
2023-04-29T05:48:01.000Z,52.5
2023-04-29T05:49:17.000Z,58.5
2023-04-29T05:50:34.000Z,56
2023-04-29T05:51:50.000Z,56.9
2023-04-29T05:53:07.000Z,60.8
2023-04-29T05:54:23.000Z,57.1
2023-04-29T05:55:39.000Z,62
2023-04-29T05:56:56.000Z,56.2
2023-04-29T05:58:12.000Z,60.7
2023-04-29T05:59:29.000Z,63.6
2023-04-29T06:00:45.000Z,61.2
2023-04-29T06:02:02.000Z,65.8
2023-04-29T06:03:18.000Z,63.2
2023-04-29T06:05:51.000Z,65.4
2023-04-29T06:07:08.000Z,67.3
2023-04-29T06:08:24.000Z,67
2023-04-29T06:09:41.000Z,67.8
2023-04-29T06:10:57.000Z,68
2023-04-29T06:13:30.000Z,65.8
2023-04-29T06:14:46.000Z,74.2
2023-04-29T06:16:03.000Z,74.3
2023-04-29T06:17:19.000Z,73.9
2023-04-29T06:22:26.000Z,74.5
2023-04-29T06:24:58.000Z,73.2
2023-04-29T06:26:14.000Z,79.9
2023-04-29T06:27:30.000Z,83.9
2023-04-29T06:28:46.000Z,77.9
2023-04-29T06:31:19.000Z,86
2023-04-29T06:32:36.000Z,93.6
2023-04-29T06:38:59.000Z,83.6
2023-04-29T06:40:15.000Z,86.2
2023-04-29T06:41:32.000Z,80.4
2023-04-29T06:42:48.000Z,85.6
2023-04-29T06:47:54.000Z,81.4
2023-04-29T06:49:10.000Z,83.9
2023-04-29T06:52:59.000Z,71.4
2023-04-29T06:56:49.000Z,93.7
2023-04-29T06:59:21.000Z,81.6
2023-04-29T07:00:37.000Z,74.5
2023-04-29T07:01:53.000Z,90.1
2023-04-29T07:03:09.000Z,77.6
2023-04-29T07:04:26.000Z,72
2023-04-29T07:05:42.000Z,80.3
2023-04-29T07:06:59.000Z,62.3
2023-04-29T07:12:05.000Z,56.9
2023-04-29T07:15:55.000Z,62.1
2023-04-29T07:17:11.000Z,49.3
2023-04-29T07:18:27.000Z,49.6
2023-04-29T07:19:44.000Z,51.4
2023-04-29T07:21:00.000Z,49.4
2023-04-29T07:23:33.000Z,54.1
2023-04-29T07:24:50.000Z,52.5
2023-04-29T07:26:06.000Z,52.3
2023-04-29T07:27:23.000Z,51.5
2023-04-29T07:28:39.000Z,56
2023-04-29T07:29:56.000Z,55.3
2023-04-29T07:31:12.000Z,53.1
2023-04-29T07:32:29.000Z,47.8
2023-04-29T07:33:46.000Z,46.2
2023-04-29T07:35:01.000Z,42.9
2023-04-29T07:36:18.000Z,41.3
2023-04-29T07:37:34.000Z,41.4
2023-04-29T07:38:51.000Z,40.9
2023-04-29T07:40:07.000Z,39.6
2023-04-29T07:41:24.000Z,40.1
2023-04-29T07:42:40.000Z,42.1
2023-04-29T07:45:12.000Z,39.1
2023-04-29T07:46:29.000Z,36.9
2023-04-29T07:47:45.000Z,30.1
2023-04-29T07:49:02.000Z,29.1
2023-04-29T07:50:18.000Z,30.9
2023-04-29T07:51:35.000Z,33.8
2023-04-29T07:52:51.000Z,30.8
2023-04-29T07:54:08.000Z,31.6
2023-04-29T07:56:41.000Z,34.3
2023-04-29T08:01:47.000Z,31.6
2023-04-29T08:03:03.000Z,31.4
2023-04-29T08:04:19.000Z,29.9
2023-04-29T08:05:35.000Z,29.5
2023-04-29T08:06:52.000Z,30
2023-04-29T08:08:09.000Z,31.6
2023-04-29T08:10:42.000Z,31.1
2023-04-29T08:11:58.000Z,31.2
2023-04-29T08:15:48.000Z,30.2
2023-04-29T08:20:54.000Z,30.6
2023-04-29T08:22:10.000Z,31.7
2023-04-29T08:23:26.000Z,32.1
2023-04-29T08:24:43.000Z,30.2
2023-04-29T08:25:59.000Z,29.9
2023-04-29T08:29:49.000Z,27.3
2023-04-29T08:31:05.000Z,28.2
2023-04-29T08:40:01.000Z,25.1
2023-04-29T08:43:50.000Z,24.6
2023-04-29T08:47:40.000Z,24.7
2023-04-29T08:54:02.000Z,22.9
2023-04-29T08:56:35.000Z,23.4
2023-04-29T09:01:40.000Z,22.4
2023-04-29T09:06:46.000Z,22.1
2023-04-29T09:10:35.000Z,19.8
2023-04-29T09:16:57.000Z,18.3
2023-04-29T09:18:12.000Z,18.4
2023-04-29T09:20:46.000Z,18.8
2023-04-29T09:23:19.000Z,19
2023-04-29T09:32:14.000Z,18.9
2023-04-29T09:33:31.000Z,18.1
2023-04-29T09:38:37.000Z,19.2
2023-04-29T09:39:53.000Z,18.7
2023-04-29T09:41:09.000Z,18.8
2023-04-29T09:47:32.000Z,20.1
2023-04-29T09:52:38.000Z,19.7
2023-04-29T09:53:55.000Z,19.9
2023-04-29T09:55:11.000Z,20.1
2023-04-29T09:56:27.000Z,20.1
2023-04-29T09:57:44.000Z,21.6
2023-04-29T09:59:00.000Z,21
2023-04-29T10:01:33.000Z,21.2
2023-04-29T10:02:50.000Z,21.2
2023-04-29T10:05:23.000Z,20.5
2023-04-29T10:06:39.000Z,20.2
2023-04-29T10:10:29.000Z,22
2023-04-29T10:11:45.000Z,22.5
2023-04-29T10:15:34.000Z,23.8
2023-04-29T10:18:07.000Z,23.5
2023-04-29T10:19:24.000Z,24
2023-04-29T10:23:14.000Z,21.4
2023-04-29T10:25:47.000Z,21.5
2023-04-29T10:28:20.000Z,21.7
2023-04-29T10:33:25.000Z,21.1
2023-04-29T10:34:42.000Z,21.4
2023-04-29T10:35:58.000Z,20.7
2023-04-29T10:37:15.000Z,22
2023-04-29T10:38:31.000Z,21.8
2023-04-29T10:39:48.000Z,22.2
2023-04-29T10:41:04.000Z,22.5
2023-04-29T10:42:21.000Z,22.5
2023-04-29T10:46:11.000Z,22.8
2023-04-29T10:47:27.000Z,22.6
2023-04-29T10:48:43.000Z,22.9
2023-04-29T10:51:16.000Z,24.1
2023-04-29T10:56:22.000Z,23.1
2023-04-29T10:57:39.000Z,23.9
2023-04-29T11:04:01.000Z,25.1
2023-04-29T11:05:17.000Z,24.9
2023-04-29T11:07:50.000Z,25.6
2023-04-29T11:11:40.000Z,27.3
2023-04-29T11:14:13.000Z,28
2023-04-29T11:16:46.000Z,27.1
2023-04-29T11:21:52.000Z,27.2
2023-04-29T11:23:09.000Z,26.7
2023-04-29T11:24:25.000Z,27.3
2023-04-29T11:26:58.000Z,26.8
2023-04-29T11:28:15.000Z,27.1
2023-04-29T11:33:20.000Z,26.2
2023-04-29T11:34:37.000Z,26.3
2023-04-29T11:42:16.000Z,25.7
2023-04-29T11:47:22.000Z,26.6
2023-04-29T11:52:27.000Z,27.1
2023-04-29T11:53:44.000Z,26.8
2023-04-29T11:55:01.000Z,27.1
2023-04-29T11:58:50.000Z,27.1
2023-04-29T12:00:07.000Z,26.7
2023-04-29T12:03:56.000Z,26.6
2023-04-29T12:05:12.000Z,26.2
2023-04-29T12:16:41.000Z,27
2023-04-29T12:17:58.000Z,27
2023-04-29T12:19:14.000Z,25.9
2023-04-29T12:20:31.000Z,26
2023-04-29T12:21:47.000Z,25.5
2023-04-29T12:23:03.000Z,24.9
2023-04-29T12:24:19.000Z,25.3
2023-04-29T12:33:15.000Z,28.3
2023-04-29T12:40:54.000Z,31.5
2023-04-29T12:47:16.000Z,32.9
2023-04-29T12:49:49.000Z,32.4
2023-04-29T12:51:06.000Z,35.6
2023-04-29T12:52:23.000Z,35.2
2023-04-29T12:53:39.000Z,35.5
2023-04-29T12:54:56.000Z,35
2023-04-29T12:56:12.000Z,36.4
2023-04-29T12:57:29.000Z,36.8
2023-04-29T12:58:44.000Z,37.7
2023-04-29T13:01:18.000Z,36.7
2023-04-29T13:02:34.000Z,37.1
2023-04-29T13:03:51.000Z,39
2023-04-29T13:06:24.000Z,39.1
2023-04-29T13:08:57.000Z,38.7
2023-04-29T13:10:13.000Z,40.5
2023-04-29T13:11:30.000Z,39.9
2023-04-29T13:12:46.000Z,39.9
2023-04-29T13:14:03.000Z,39.9
2023-04-29T13:15:19.000Z,40.2
2023-04-29T13:16:35.000Z,40.3
2023-04-29T13:17:52.000Z,41
2023-04-29T13:19:08.000Z,39.5
2023-04-29T13:20:25.000Z,40.4
2023-04-29T13:21:41.000Z,41.1
2023-04-29T13:22:58.000Z,40.6
2023-04-29T13:24:15.000Z,41
2023-04-29T13:25:31.000Z,41.3
2023-04-29T13:26:48.000Z,40.4
2023-04-29T13:29:21.000Z,42.2
2023-04-29T13:30:37.000Z,43.5
2023-04-29T13:33:10.000Z,43.1
2023-04-29T13:36:59.000Z,45.4
2023-04-29T13:38:15.000Z,46.8
2023-04-29T13:39:32.000Z,45.1
2023-04-29T13:42:05.000Z,46.2
2023-04-29T13:44:38.000Z,47.2
2023-04-29T13:45:54.000Z,48.6
2023-04-29T13:47:11.000Z,49.8
2023-04-29T13:48:27.000Z,51.4
2023-04-29T13:49:44.000Z,51
2023-04-29T13:51:00.000Z,52.6
2023-04-29T13:52:17.000Z,51.5
2023-04-29T13:53:33.000Z,52.2
2023-04-29T13:54:49.000Z,52.6
2023-04-29T13:56:06.000Z,53.7
2023-04-29T13:57:22.000Z,54.6
2023-04-29T13:58:39.000Z,51
2023-04-29T13:59:55.000Z,52.4
2023-04-29T14:01:12.000Z,53
2023-04-29T14:02:29.000Z,51.2
2023-04-29T14:03:45.000Z,51.2
2023-04-29T14:05:02.000Z,55.2
2023-04-29T14:06:18.000Z,51.3
2023-04-29T14:07:35.000Z,51
2023-04-29T14:08:51.000Z,49.8
2023-04-29T14:10:07.000Z,50.9
2023-04-29T14:12:39.000Z,50.1
2023-04-29T14:13:56.000Z,50.4
2023-04-29T14:15:12.000Z,51.9
2023-04-29T14:16:29.000Z,49.6
2023-04-29T14:17:46.000Z,51.2
2023-04-29T14:19:02.000Z,49.1
2023-04-29T14:20:19.000Z,47.7
2023-04-29T14:21:35.000Z,50.4
2023-04-29T14:22:52.000Z,50.2
2023-04-29T14:24:08.000Z,50.3
2023-04-29T14:25:25.000Z,50.8
2023-04-29T14:26:41.000Z,49.8
2023-04-29T14:27:57.000Z,50.4
2023-04-29T14:29:14.000Z,54.8
2023-04-29T14:30:30.000Z,52.6
2023-04-29T14:31:47.000Z,52.7
2023-04-29T14:33:03.000Z,56.3
2023-04-29T14:34:20.000Z,58.6
2023-04-29T14:35:36.000Z,58.1
2023-04-29T14:36:53.000Z,60.5
2023-04-29T14:38:09.000Z,58.3
2023-04-29T14:39:25.000Z,57.6
2023-04-29T14:40:41.000Z,64.6
2023-04-29T14:41:58.000Z,63.3
2023-04-29T14:43:14.000Z,62.3
2023-04-29T14:44:31.000Z,60.3
2023-04-29T14:45:47.000Z,62.4
2023-04-29T14:47:04.000Z,63.3
2023-04-29T14:48:20.000Z,62.7
2023-04-29T14:49:37.000Z,63.8
2023-04-29T14:50:53.000Z,59.3
2023-04-29T14:53:27.000Z,65.8
2023-04-29T14:54:43.000Z,66.5
2023-04-29T14:55:59.000Z,69.7
2023-04-29T14:57:15.000Z,63.9
2023-04-29T14:58:32.000Z,67.3
2023-04-29T14:59:48.000Z,66.1
2023-04-29T15:02:22.000Z,64.9
2023-04-29T15:03:37.000Z,63
2023-04-29T15:04:53.000Z,66.9
2023-04-29T15:06:10.000Z,62.9
2023-04-29T15:07:26.000Z,67.5
2023-04-29T15:08:43.000Z,65.2
2023-04-29T15:09:59.000Z,68.7
2023-04-29T15:11:16.000Z,70
2023-04-29T15:12:32.000Z,70.1
2023-04-29T15:13:49.000Z,70.5
2023-04-29T15:15:06.000Z,73.2
2023-04-29T15:16:22.000Z,69.4
2023-04-29T15:17:38.000Z,73.4
2023-04-29T15:18:54.000Z,71.5
2023-04-29T15:20:10.000Z,67.3
2023-04-29T15:21:27.000Z,73
2023-04-29T15:22:43.000Z,69.1
2023-04-29T15:24:00.000Z,70
2023-04-29T15:25:16.000Z,73
2023-04-29T15:26:33.000Z,73.4
2023-04-29T15:27:50.000Z,73.7
2023-04-29T15:29:06.000Z,78.8
2023-04-29T15:30:23.000Z,76.9
2023-04-29T15:31:39.000Z,76
2023-04-29T15:32:56.000Z,75.7
2023-04-29T15:34:12.000Z,79.6
2023-04-29T15:35:28.000Z,78
2023-04-29T15:36:45.000Z,74.3
2023-04-29T15:38:01.000Z,79.9
2023-04-29T15:39:18.000Z,75.7
2023-04-29T15:40:34.000Z,78.1
2023-04-29T15:41:51.000Z,78.1
2023-04-29T15:43:07.000Z,75.4
2023-04-29T15:44:24.000Z,78.1
2023-04-29T15:45:40.000Z,77.8
2023-04-29T15:46:57.000Z,75
2023-04-29T15:48:13.000Z,71.6
2023-04-29T15:50:46.000Z,68.3
2023-04-29T15:52:02.000Z,70.2
2023-04-29T15:53:19.000Z,63.5
2023-04-29T15:54:35.000Z,66.6
2023-04-29T15:55:52.000Z,70.1
2023-04-29T15:57:08.000Z,66.8
2023-04-29T15:58:25.000Z,64.7
2023-04-29T15:59:42.000Z,67.7
2023-04-29T16:00:58.000Z,66.2
2023-04-29T16:02:15.000Z,67.6
2023-04-29T16:03:31.000Z,66.7
2023-04-29T16:04:48.000Z,65
2023-04-29T16:06:04.000Z,64.2
2023-04-29T16:07:21.000Z,62.5
2023-04-29T16:08:37.000Z,63.4
2023-04-29T16:09:53.000Z,62.6
2023-04-29T16:11:10.000Z,61.4
2023-04-29T16:12:26.000Z,64.3
2023-04-29T16:13:43.000Z,61.5
2023-04-29T16:14:59.000Z,61.4
2023-04-29T16:16:16.000Z,58
2023-04-29T16:17:32.000Z,62.5
2023-04-29T16:18:49.000Z,59.1
2023-04-29T16:20:05.000Z,61.1
2023-04-29T16:21:22.000Z,60.2
2023-04-29T16:22:38.000Z,59.3
2023-04-29T16:23:55.000Z,59.7
2023-04-29T16:25:11.000Z,57.6
2023-04-29T16:26:27.000Z,60.9
2023-04-29T16:27:44.000Z,59.3
2023-04-29T16:29:00.000Z,60.9
2023-04-29T16:30:17.000Z,63.6
2023-04-29T16:31:33.000Z,64.2
2023-04-29T16:32:50.000Z,64
2023-04-29T16:34:07.000Z,58.9
2023-04-29T16:35:23.000Z,59.9
2023-04-29T16:36:40.000Z,60.8
2023-04-29T16:37:56.000Z,59.9
2023-04-29T16:39:13.000Z,58
2023-04-29T16:40:29.000Z,58.5
2023-04-29T16:41:45.000Z,59.5
2023-04-29T16:43:02.000Z,57.7
2023-04-29T16:44:18.000Z,57.9
2023-04-29T16:45:35.000Z,59.6
2023-04-29T16:46:51.000Z,63.8
2023-04-29T16:48:08.000Z,60.6
2023-04-29T16:49:24.000Z,61.4
2023-04-29T16:50:41.000Z,59.8
2023-04-29T16:51:57.000Z,57.8
2023-04-29T16:53:14.000Z,61.4
2023-04-29T16:54:30.000Z,59.1
2023-04-29T16:55:47.000Z,64.1
2023-04-29T16:57:04.000Z,61.8
2023-04-29T16:58:20.000Z,59.7
2023-04-29T16:59:36.000Z,58.7
2023-04-29T17:00:52.000Z,55
2023-04-29T17:02:09.000Z,61.3
2023-04-29T17:03:25.000Z,58.4
2023-04-29T17:04:42.000Z,60.4
2023-04-29T17:05:59.000Z,59.7
2023-04-29T17:08:32.000Z,58.4
2023-04-29T17:09:48.000Z,62.5
2023-04-29T17:11:05.000Z,58.3
2023-04-29T17:12:21.000Z,63.1
2023-04-29T17:13:38.000Z,62.6
2023-04-29T17:14:54.000Z,64.4
2023-04-29T17:16:10.000Z,58.4
2023-04-29T17:17:27.000Z,59.3
2023-04-29T17:18:43.000Z,59.8
2023-04-29T17:20:00.000Z,58.9
2023-04-29T17:21:16.000Z,55.3
2023-04-29T17:22:33.000Z,56.5
2023-04-29T17:23:49.000Z,60
2023-04-29T17:25:06.000Z,55.2
2023-04-29T17:26:22.000Z,56.7
2023-04-29T17:27:39.000Z,59.7
2023-04-29T17:28:55.000Z,57.9
2023-04-29T17:30:12.000Z,63.7
2023-04-29T17:31:29.000Z,62
2023-04-29T17:32:44.000Z,62.6
2023-04-29T17:34:01.000Z,56.7
2023-04-29T17:35:17.000Z,59.2
2023-04-29T17:36:34.000Z,56.7
2023-04-29T17:37:51.000Z,57.2
2023-04-29T17:39:07.000Z,58.8
2023-04-29T17:40:24.000Z,59.4
2023-04-29T17:41:40.000Z,56
2023-04-29T17:42:57.000Z,55.3
2023-04-29T17:44:13.000Z,56.6
2023-04-29T17:45:30.000Z,60.2
2023-04-29T17:46:46.000Z,56.2
2023-04-29T17:48:03.000Z,57.1
2023-04-29T17:49:19.000Z,58.7
2023-04-29T17:50:35.000Z,53.2
2023-04-29T17:51:52.000Z,53.6
2023-04-29T17:53:08.000Z,57
2023-04-29T17:54:24.000Z,58.6
2023-04-29T17:56:57.000Z,53.4
2023-04-29T17:58:14.000Z,54
2023-04-29T17:59:30.000Z,56.1
2023-04-29T18:00:47.000Z,54.3
2023-04-29T18:02:03.000Z,54.8
2023-04-29T18:03:20.000Z,53.5
2023-04-29T18:04:36.000Z,51.7
2023-04-29T18:05:53.000Z,52.9
2023-04-29T18:07:09.000Z,53.4
2023-04-29T18:08:26.000Z,51.8
2023-04-29T18:09:43.000Z,54.2
2023-04-29T18:10:58.000Z,52.9
2023-04-29T18:12:15.000Z,53.2
2023-04-29T18:13:31.000Z,52
2023-04-29T18:14:48.000Z,53.3
2023-04-29T18:16:04.000Z,51.7
2023-04-29T18:17:21.000Z,51.1
2023-04-29T18:18:38.000Z,50.1
2023-04-29T18:19:54.000Z,50.3
2023-04-29T18:21:11.000Z,51.6
2023-04-29T18:22:27.000Z,49
2023-04-29T18:23:44.000Z,49
2023-04-29T18:25:00.000Z,48.6
2023-04-29T18:26:17.000Z,49.1
2023-04-29T18:27:33.000Z,47.6
2023-04-29T18:28:49.000Z,50.4
2023-04-29T18:30:06.000Z,49.1
2023-04-29T18:31:22.000Z,44.9
2023-04-29T18:32:39.000Z,52
2023-04-29T18:33:55.000Z,50.5
2023-04-29T18:35:12.000Z,48.3
2023-04-29T18:36:28.000Z,47.1
2023-04-29T18:37:45.000Z,47
2023-04-29T18:39:01.000Z,47.2
2023-04-29T18:40:18.000Z,46.9
2023-04-29T18:41:35.000Z,48.3
2023-04-29T18:42:51.000Z,48.3
2023-04-29T18:44:07.000Z,47.8
2023-04-29T18:45:23.000Z,48
2023-04-29T18:46:40.000Z,49.4
2023-04-29T18:47:56.000Z,50.4
2023-04-29T18:49:13.511Z,48.1
2023-04-29T18:50:30.000Z,50.3
2023-04-29T18:51:46.000Z,50.5
2023-04-29T18:53:03.000Z,48.8
2023-04-29T18:54:19.000Z,52
2023-04-29T18:55:36.000Z,48.1
2023-04-29T18:56:52.000Z,50
2023-04-29T18:58:09.000Z,48.8
2023-04-29T18:59:25.000Z,48.2
2023-04-29T19:00:41.000Z,49.3
2023-04-29T19:01:58.000Z,47.3
2023-04-29T19:03:14.000Z,48.7
2023-04-29T19:04:31.000Z,49.4
2023-04-29T19:05:47.000Z,48
2023-04-29T19:07:04.000Z,47.1
2023-04-29T19:08:20.000Z,50
2023-04-29T19:10:53.000Z,49.3
2023-04-29T19:12:10.000Z,50.7
2023-04-29T19:13:26.000Z,48
2023-04-29T19:14:43.000Z,47.3
2023-04-29T19:16:00.000Z,47.9
2023-04-29T19:17:15.000Z,48.8
2023-04-29T19:18:32.000Z,46.8
2023-04-29T19:19:48.000Z,51
2023-04-29T19:21:05.000Z,49.5
2023-04-29T19:22:22.000Z,50.6
2023-04-29T19:23:38.000Z,55
2023-04-29T19:24:55.000Z,50.4
2023-04-29T19:26:11.000Z,52.6
2023-04-29T19:27:28.000Z,48.6
2023-04-29T19:28:44.000Z,48.1
2023-04-29T19:30:01.000Z,49.8
2023-04-29T19:31:17.000Z,47.6
2023-04-29T19:32:34.000Z,52.6
2023-04-29T19:33:50.000Z,45.1
2023-04-29T19:35:06.000Z,45.7
2023-04-29T19:36:23.000Z,49.3
2023-04-29T19:37:39.000Z,48.3
2023-04-29T19:38:56.000Z,50.2
2023-04-29T19:40:12.000Z,47.4
2023-04-29T19:41:29.000Z,48.4
2023-04-29T19:42:45.000Z,48.6
2023-04-29T19:44:02.000Z,48.8
2023-04-29T19:45:18.000Z,49.5
2023-04-29T19:46:35.000Z,51.9
2023-04-29T19:47:52.000Z,50
2023-04-29T19:49:08.000Z,51.6
2023-04-29T19:50:24.000Z,51.9
2023-04-29T19:51:40.000Z,51.7
2023-04-29T19:52:57.000Z,48.8
2023-04-29T19:54:14.000Z,52.1
2023-04-29T19:55:30.000Z,48.3
2023-04-29T19:56:47.000Z,51.6
2023-04-29T19:58:03.000Z,50.6
2023-04-29T19:59:20.000Z,51.8
2023-04-29T20:00:36.000Z,50.5
2023-04-29T20:01:53.000Z,49.1
2023-04-29T20:03:09.000Z,47.3
2023-04-29T20:04:26.000Z,49.4
2023-04-29T20:05:42.000Z,49.8
2023-04-29T20:06:58.000Z,49.8
2023-04-29T20:09:31.000Z,49.6
2023-04-29T20:10:48.000Z,46.2
2023-04-29T20:12:04.000Z,49
2023-04-29T20:14:37.000Z,49.8
2023-04-29T20:15:54.000Z,48.9
2023-04-29T20:17:10.000Z,49.9
2023-04-29T20:19:44.000Z,50.9
2023-04-29T20:21:00.000Z,50.2
2023-04-29T20:22:16.000Z,52
2023-04-29T20:23:32.000Z,50.3
2023-04-29T20:24:48.000Z,52
2023-04-29T20:26:05.000Z,53.1
2023-04-29T20:27:21.000Z,51.4
2023-04-29T20:29:54.000Z,52.7
2023-04-29T20:31:11.000Z,48
2023-04-29T20:32:28.000Z,51.2
2023-04-29T20:33:44.000Z,52.2
2023-04-29T20:35:01.000Z,51.8
2023-04-29T20:36:17.000Z,50.4
2023-04-29T20:37:34.000Z,51.5
2023-04-29T20:38:50.000Z,53.4
2023-04-29T20:40:06.000Z,57.8
2023-04-29T20:41:23.000Z,52.2
2023-04-29T20:42:39.000Z,50.9
2023-04-29T20:43:56.000Z,51.8
2023-04-29T20:45:12.000Z,53.9
2023-04-29T20:46:29.000Z,51.9
2023-04-29T20:47:45.000Z,54
2023-04-29T20:49:02.000Z,60.8
2023-04-29T20:50:18.000Z,50.2
2023-04-29T20:51:33.000Z,54.4
2023-04-29T20:52:50.000Z,53.8
2023-04-29T20:54:07.000Z,55.9
2023-04-29T20:55:23.000Z,53.7
2023-04-29T20:56:40.000Z,52.2
2023-04-29T20:57:56.000Z,55.4
2023-04-29T21:00:29.000Z,54.6
2023-04-29T21:01:46.000Z,54.1
2023-04-29T21:03:02.000Z,56
2023-04-29T21:04:19.000Z,57.5
2023-04-29T21:05:35.000Z,58
2023-04-29T21:06:52.000Z,60.6
2023-04-29T21:08:08.000Z,55.4